CET,Max TemperatureF,Mean TemperatureF,Min TemperatureF,Max Dew PointF,MeanDew PointF,Min DewpointF,Max Humidity, Mean Humidity, Min Humidity, Max Sea Level PressureIn, Mean Sea Level PressureIn, Min Sea Level PressureIn, Max VisibilityMiles, Mean VisibilityMiles, Min VisibilityMiles, Max Wind SpeedMPH, Mean Wind SpeedMPH, Max Gust SpeedMPH,PrecipitationIn, CloudCover, Events, WindDirDegrees
2013-1-1,53,48,42,45,40,35,87,73,52,30.09,30.03,29.95,19,7,6,13,8,,0.00,2,,322
2013-1-2,58,50,41,45,40,37,87,75,47,30.33,30.18,30.09,19,7,6,15,10,22,0.00,1,,314
2013-1-3,60,50,39,45,35,28,87,64,29,30.66,30.54,30.36,19,8,6,20,12,30,0.00,2,,335
2013-1-4,61,52,42,39,35,32,66,55,30,30.66,30.54,30.48,16,8,6,23,15,34,0.00,1,,315
2013-1-5,65,54,44,46,37,34,66,54,28,30.46,30.34,30.24,19,8,6,21,16,31,0.00,1,,319
2013-1-6,63,56,48,46,40,36,77,59,31,30.33,30.28,30.24,17,14,12,20,13,21,0.00,,,300
2013-1-7,66,56,46,52,41,35,94,64,27,30.27,30.21,30.18,19,11,6,21,14,29,0.00,1,,345
2013-1-8,60,52,43,52,42,35,88,72,50,30.33,30.27,30.24,11,8,6,15,9,,0.00,1,,305
2013-1-9,57,50,42,48,39,34,77,69,48,30.25,30.17,30.12,8,6,6,16,11,28,0.00,1,,314
2013-1-10,58,50,41,45,40,33,87,72,50,30.12,30.09,30.06,9,6,6,15,9,33,0.00,1,,308
2013-1-11,60,52,44,45,40,35,87,67,41,30.15,30.11,30.09,14,7,6,16,11,25,0.00,1,,313
2013-1-12,57,47,37,48,39,31,94,73,39,30.12,30.02,29.89,12,7,6,16,10,25,0.00,1,,308
2013-1-13,49,46,44,45,42,38,93,79,59,29.89,29.82,29.77,19,7,4,20,9,22,0.08,3,Rain,305
2013-1-14,54,46,39,39,36,32,87,64,40,29.98,29.93,29.89,19,7,6,14,8,24,0.00,1,,317
2013-1-15,55,47,39,39,36,32,81,61,41,29.99,29.87,29.77,19,7,6,20,9,33,0.00,2,,304
2013-1-16,59,50,41,48,39,33,88,66,46,29.90,29.71,29.56,19,7,6,23,8,29,0.00,4,,301
2013-1-17,57,52,47,48,39,21,82,65,20,29.80,29.74,29.62,19,7,6,18,9,25,0.00,2,,151
2013-1-18,53,48,42,50,41,28,88,70,50,29.78,29.66,29.44,15,6,6,13,8,,0.01,4,Rain,286
2013-1-19,59,54,49,55,50,43,94,85,71,29.42,29.16,28.94,7,5,2,24,6,,0.24,3,Rain,244
2013-1-20,57,51,45,46,40,30,93,65,38,29.53,29.31,29.09,19,7,4,22,9,30,0.08,1,Rain,302
2013-1-21,56,50,43,39,35,28,76,55,28,29.80,29.61,29.50,19,7,6,22,7,28,0.00,2,,304
2013-1-22,54,48,41,43,33,25,87,57,27,29.83,29.72,29.50,19,7,5,22,8,,0.59,2,Rain,295
2013-1-23,54,48,42,41,36,32,87,63,40,29.74,29.62,29.53,19,7,6,25,11,34,0.31,2,Rain,310
2013-1-24,54,49,44,41,37,28,87,63,35,29.77,29.67,29.59,19,7,6,21,12,28,0.00,2,,319
2013-1-25,60,51,42,39,26,19,81,41,20,29.90,29.85,29.77,19,9,6,22,12,32,0.00,1,,315
2013-1-26,54,48,42,46,39,30,93,70,40,30.06,29.89,29.74,19,7,6,13,8,,0.00,2,Rain,317
2013-1-27,56,48,41,50,41,36,93,73,41,30.09,29.96,29.80,11,6,5,14,9,20,0.02,1,Rain,304
2013-1-28,62,54,46,48,42,36,100,66,32,30.30,30.07,29.80,19,8,6,18,7,16,0.02,3,Rain,313
2013-1-29,60,52,45,48,43,38,82,70,50,30.36,30.32,30.27,16,7,6,14,9,,0.00,1,,295
2013-1-30,62,54,45,52,44,36,94,72,43,30.35,30.28,30.21,12,6,6,14,8,23,0.00,1,,288
2013-1-31,65,58,50,52,48,43,88,73,44,30.42,30.35,30.30,19,8,6,16,10,,0.00,1,,277